sensor_id;sensor_type;location;lat;lon;timestamp;temperature;humidity
68177;DHT22;56478;50.982;7.032;2024-03-02T00:00:04;8.44;72.69
68177;DHT22;56478;50.982;7.032;2024-03-02T00:02:42;8.42;72.91
68177;DHT22;56478;50.982;7.032;2024-03-02T00:05:16;8.37;73.19
68177;DHT22;56478;50.982;7.032;2024-03-02T00:07:44;8.38;73.13
68177;DHT22;56478;50.982;7.032;2024-03-02T00:10:11;8.38;73.02
68177;DHT22;56478;50.982;7.032;2024-03-02T00:12:39;8.34;73.13
68177;DHT22;56478;50.982;7.032;2024-03-02T00:18:01;8.39;73.09
68177;DHT22;56478;50.982;7.032;2024-03-02T00:20:27;8.41;72.94
68177;DHT22;56478;50.982;7.032;2024-03-02T00:23:04;8.48;72.79
68177;DHT22;56478;50.982;7.032;2024-03-02T00:25:44;8.52;72.64
68177;DHT22;56478;50.982;7.032;2024-03-02T00:28:20;8.46;72.76
68177;DHT22;56478;50.982;7.032;2024-03-02T00:30:56;8.49;72.79
68177;DHT22;56478;50.982;7.032;2024-03-02T00:33:31;8.60;72.27
68177;DHT22;56478;50.982;7.032;2024-03-02T00:35:58;8.65;72.18
68177;DHT22;56478;50.982;7.032;2024-03-02T00:38:26;8.66;72.12
68177;DHT22;56478;50.982;7.032;2024-03-02T00:40:51;8.74;71.74
68177;DHT22;56478;50.982;7.032;2024-03-02T00:43:38;8.77;71.77
68177;DHT22;56478;50.982;7.032;2024-03-02T00:46:05;8.81;71.65
68177;DHT22;56478;50.982;7.032;2024-03-02T00:48:30;8.81;71.49
68177;DHT22;56478;50.982;7.032;2024-03-02T00:50:57;8.87;71.21
68177;DHT22;56478;50.982;7.032;2024-03-02T00:53:24;8.90;71.08
68177;DHT22;56478;50.982;7.032;2024-03-02T00:55:51;8.96;70.96
68177;DHT22;56478;50.982;7.032;2024-03-02T00:58:17;8.97;70.81
68177;DHT22;56478;50.982;7.032;2024-03-02T01:00:42;9.03;70.72
68177;DHT22;56478;50.982;7.032;2024-03-02T01:03:08;9.04;70.52
68177;DHT22;56478;50.982;7.032;2024-03-02T01:05:36;8.98;70.69
68177;DHT22;56478;50.982;7.032;2024-03-02T01:08:02;9.01;70.69
68177;DHT22;56478;50.982;7.032;2024-03-02T01:10:28;9.00;70.64
68177;DHT22;56478;50.982;7.032;2024-03-02T01:12:53;9.00;70.51
68177;DHT22;56478;50.982;7.032;2024-03-02T01:15:19;8.96;70.56
68177;DHT22;56478;50.982;7.032;2024-03-02T01:17:45;8.87;70.71
68177;DHT22;56478;50.982;7.032;2024-03-02T01:20:11;8.87;70.73
68177;DHT22;56478;50.982;7.032;2024-03-02T01:22:36;8.84;70.71
68177;DHT22;56478;50.982;7.032;2024-03-02T01:25:03;8.87;70.65
68177;DHT22;56478;50.982;7.032;2024-03-02T01:27:29;8.88;70.58
68177;DHT22;56478;50.982;7.032;2024-03-02T01:29:54;8.88;70.57
68177;DHT22;56478;50.982;7.032;2024-03-02T01:32:20;8.88;70.51
68177;DHT22;56478;50.982;7.032;2024-03-02T01:34:46;8.83;70.61
68177;DHT22;56478;50.982;7.032;2024-03-02T01:37:12;8.80;70.39
68177;DHT22;56478;50.982;7.032;2024-03-02T01:39:38;8.80;70.58
68177;DHT22;56478;50.982;7.032;2024-03-02T01:42:04;8.79;70.70
68177;DHT22;56478;50.982;7.032;2024-03-02T01:44:30;8.77;70.64
68177;DHT22;56478;50.982;7.032;2024-03-02T01:46:55;8.83;70.40
68177;DHT22;56478;50.982;7.032;2024-03-02T01:49:21;8.81;70.29
68177;DHT22;56478;50.982;7.032;2024-03-02T01:51:47;8.84;70.17
68177;DHT22;56478;50.982;7.032;2024-03-02T01:54:13;8.76;70.66
68177;DHT22;56478;50.982;7.032;2024-03-02T01:56:39;8.76;70.57
68177;DHT22;56478;50.982;7.032;2024-03-02T01:59:05;8.84;70.22
68177;DHT22;56478;50.982;7.032;2024-03-02T02:01:30;8.88;70.03
68177;DHT22;56478;50.982;7.032;2024-03-02T02:03:56;8.85;70.00
68177;DHT22;56478;50.982;7.032;2024-03-02T02:06:22;8.87;69.89
68177;DHT22;56478;50.982;7.032;2024-03-02T02:08:48;8.87;69.98
68177;DHT22;56478;50.982;7.032;2024-03-02T02:11:16;8.96;69.73
68177;DHT22;56478;50.982;7.032;2024-03-02T02:13:42;9.01;69.37
68177;DHT22;56478;50.982;7.032;2024-03-02T02:16:32;9.03;69.45
68177;DHT22;56478;50.982;7.032;2024-03-02T02:18:58;9.03;69.63
68177;DHT22;56478;50.982;7.032;2024-03-02T02:21:23;9.00;69.67
68177;DHT22;56478;50.982;7.032;2024-03-02T02:23:49;9.04;69.56
68177;DHT22;56478;50.982;7.032;2024-03-02T02:26:15;9.11;69.27
68177;DHT22;56478;50.982;7.032;2024-03-02T02:28:41;9.07;69.11
68177;DHT22;56478;50.982;7.032;2024-03-02T02:31:13;9.07;69.18
68177;DHT22;56478;50.982;7.032;2024-03-02T02:33:39;9.14;69.01
68177;DHT22;56478;50.982;7.032;2024-03-02T02:36:05;9.10;69.08
68177;DHT22;56478;50.982;7.032;2024-03-02T02:38:33;9.07;69.21
68177;DHT22;56478;50.982;7.032;2024-03-02T02:41:00;9.08;69.33
68177;DHT22;56478;50.982;7.032;2024-03-02T02:43:25;9.15;68.98
68177;DHT22;56478;50.982;7.032;2024-03-02T02:45:51;9.12;69.00
68177;DHT22;56478;50.982;7.032;2024-03-02T02:48:17;9.17;68.78
68177;DHT22;56478;50.982;7.032;2024-03-02T02:50:42;9.24;68.65
68177;DHT22;56478;50.982;7.032;2024-03-02T02:53:08;9.17;68.94
68177;DHT22;56478;50.982;7.032;2024-03-02T02:55:35;9.19;68.75
68177;DHT22;56478;50.982;7.032;2024-03-02T02:58:08;9.21;68.70
68177;DHT22;56478;50.982;7.032;2024-03-02T03:00:34;9.19;68.74
68177;DHT22;56478;50.982;7.032;2024-03-02T03:03:01;9.22;68.58
68177;DHT22;56478;50.982;7.032;2024-03-02T03:05:26;9.17;68.87
68177;DHT22;56478;50.982;7.032;2024-03-02T03:07:52;9.21;68.64
68177;DHT22;56478;50.982;7.032;2024-03-02T03:10:18;9.22;68.57
68177;DHT22;56478;50.982;7.032;2024-03-02T03:12:46;9.19;68.95
68177;DHT22;56478;50.982;7.032;2024-03-02T03:15:12;9.21;68.72
68177;DHT22;56478;50.982;7.032;2024-03-02T03:17:37;9.25;68.55
68177;DHT22;56478;50.982;7.032;2024-03-02T03:20:03;9.14;68.80
68177;DHT22;56478;50.982;7.032;2024-03-02T03:22:30;9.10;69.36
68177;DHT22;56478;50.982;7.032;2024-03-02T03:24:57;9.17;68.81
68177;DHT22;56478;50.982;7.032;2024-03-02T03:27:22;9.17;68.76
68177;DHT22;56478;50.982;7.032;2024-03-02T03:29:48;9.08;68.99
68177;DHT22;56478;50.982;7.032;2024-03-02T03:32:14;9.10;69.18
68177;DHT22;56478;50.982;7.032;2024-03-02T03:34:40;9.08;69.14
68177;DHT22;56478;50.982;7.032;2024-03-02T03:37:05;9.01;69.38
68177;DHT22;56478;50.982;7.032;2024-03-02T03:39:32;9.04;69.37
68177;DHT22;56478;50.982;7.032;2024-03-02T03:41:59;9.07;69.11
68177;DHT22;56478;50.982;7.032;2024-03-02T03:44:24;9.11;69.09
68177;DHT22;56478;50.982;7.032;2024-03-02T03:46:50;9.10;69.01
68177;DHT22;56478;50.982;7.032;2024-03-02T03:49:16;9.05;69.23
68177;DHT22;56478;50.982;7.032;2024-03-02T03:51:42;9.00;69.47
68177;DHT22;56478;50.982;7.032;2024-03-02T03:54:08;9.10;69.16
68177;DHT22;56478;50.982;7.032;2024-03-02T03:56:36;9.08;69.11
68177;DHT22;56478;50.982;7.032;2024-03-02T03:59:02;9.08;69.07
68177;DHT22;56478;50.982;7.032;2024-03-02T04:01:28;9.10;69.02
68177;DHT22;56478;50.982;7.032;2024-03-02T04:03:53;9.03;69.15
68177;DHT22;56478;50.982;7.032;2024-03-02T04:06:20;8.98;69.25
68177;DHT22;56478;50.982;7.032;2024-03-02T04:08:45;8.94;69.43
68177;DHT22;56478;50.982;7.032;2024-03-02T04:11:11;8.87;69.72
68177;DHT22;56478;50.982;7.032;2024-03-02T04:13:37;8.81;69.76
68177;DHT22;56478;50.982;7.032;2024-03-02T04:16:03;8.77;70.08
68177;DHT22;56478;50.982;7.032;2024-03-02T04:18:30;8.63;70.53
68177;DHT22;56478;50.982;7.032;2024-03-02T04:20:57;8.66;70.45
68177;DHT22;56478;50.982;7.032;2024-03-02T04:23:27;8.56;70.63
68177;DHT22;56478;50.982;7.032;2024-03-02T04:25:53;8.50;71.13
68177;DHT22;56478;50.982;7.032;2024-03-02T04:28:18;8.48;71.08
68177;DHT22;56478;50.982;7.032;2024-03-02T04:30:44;8.53;70.85
68177;DHT22;56478;50.982;7.032;2024-03-02T04:33:09;8.39;71.29
68177;DHT22;56478;50.982;7.032;2024-03-02T04:35:36;8.37;71.82
68177;DHT22;56478;50.982;7.032;2024-03-02T04:38:02;8.42;71.36
68177;DHT22;56478;50.982;7.032;2024-03-02T04:40:27;8.35;71.67
68177;DHT22;56478;50.982;7.032;2024-03-02T04:42:53;8.34;71.50
68177;DHT22;56478;50.982;7.032;2024-03-02T04:45:19;8.28;71.60
68177;DHT22;56478;50.982;7.032;2024-03-02T04:47:45;8.28;71.62
68177;DHT22;56478;50.982;7.032;2024-03-02T04:50:10;8.25;71.70
68177;DHT22;56478;50.982;7.032;2024-03-02T04:52:36;8.17;72.13
68177;DHT22;56478;50.982;7.032;2024-03-02T04:55:02;8.01;72.67
68177;DHT22;56478;50.982;7.032;2024-03-02T04:57:46;8.10;72.33
68177;DHT22;56478;50.982;7.032;2024-03-02T05:00:13;8.10;72.33
68177;DHT22;56478;50.982;7.032;2024-03-02T05:02:39;8.10;72.21
68177;DHT22;56478;50.982;7.032;2024-03-02T05:05:05;8.00;72.64
68177;DHT22;56478;50.982;7.032;2024-03-02T05:07:30;7.96;72.83
68177;DHT22;56478;50.982;7.032;2024-03-02T05:09:56;7.94;72.92
68177;DHT22;56478;50.982;7.032;2024-03-02T05:12:21;7.96;72.80
68177;DHT22;56478;50.982;7.032;2024-03-02T05:15:06;7.94;72.91
68177;DHT22;56478;50.982;7.032;2024-03-02T05:17:32;7.94;72.85
68177;DHT22;56478;50.982;7.032;2024-03-02T05:19:58;7.91;72.91
68177;DHT22;56478;50.982;7.032;2024-03-02T05:22:24;7.85;73.11
68177;DHT22;56478;50.982;7.032;2024-03-02T05:24:50;7.82;73.31
68177;DHT22;56478;50.982;7.032;2024-03-02T05:27:15;7.76;73.45
68177;DHT22;56478;50.982;7.032;2024-03-02T05:29:41;7.68;73.71
68177;DHT22;56478;50.982;7.032;2024-03-02T05:32:07;7.54;74.17
68177;DHT22;56478;50.982;7.032;2024-03-02T05:34:32;7.54;74.29
68177;DHT22;56478;50.982;7.032;2024-03-02T05:37:01;7.51;74.53
68177;DHT22;56478;50.982;7.032;2024-03-02T05:39:27;7.49;74.82
68177;DHT22;56478;50.982;7.032;2024-03-02T05:41:52;7.47;74.81
68177;DHT22;56478;50.982;7.032;2024-03-02T05:44:18;7.41;75.03
68177;DHT22;56478;50.982;7.032;2024-03-02T05:46:45;7.41;74.93
68177;DHT22;56478;50.982;7.032;2024-03-02T05:49:11;7.44;74.97
68177;DHT22;56478;50.982;7.032;2024-03-02T05:51:36;7.42;74.98
68177;DHT22;56478;50.982;7.032;2024-03-02T05:54:02;7.42;74.85
68177;DHT22;56478;50.982;7.032;2024-03-02T05:56:28;7.34;75.30
68177;DHT22;56478;50.982;7.032;2024-03-02T05:58:54;7.34;75.27
68177;DHT22;56478;50.982;7.032;2024-03-02T06:01:46;7.32;75.37
68177;DHT22;56478;50.982;7.032;2024-03-02T06:04:17;7.32;75.28
68177;DHT22;56478;50.982;7.032;2024-03-02T06:06:43;7.35;75.35
68177;DHT22;56478;50.982;7.032;2024-03-02T06:09:09;7.31;75.54
68177;DHT22;56478;50.982;7.032;2024-03-02T06:11:38;7.44;75.19
68177;DHT22;56478;50.982;7.032;2024-03-02T06:14:06;7.45;75.34
68177;DHT22;56478;50.982;7.032;2024-03-02T06:16:32;7.54;74.79
68177;DHT22;56478;50.982;7.032;2024-03-02T06:18:58;7.55;74.70
68177;DHT22;56478;50.982;7.032;2024-03-02T06:21:24;7.52;74.95
68177;DHT22;56478;50.982;7.032;2024-03-02T06:23:50;7.49;75.09
68177;DHT22;56478;50.982;7.032;2024-03-02T06:26:16;7.59;74.81
68177;DHT22;56478;50.982;7.032;2024-03-02T06:28:41;7.59;74.89
68177;DHT22;56478;50.982;7.032;2024-03-02T06:31:07;7.69;74.62
68177;DHT22;56478;50.982;7.032;2024-03-02T06:33:33;7.79;74.11
68177;DHT22;56478;50.982;7.032;2024-03-02T06:35:58;7.77;74.22
68177;DHT22;56478;50.982;7.032;2024-03-02T06:38:24;7.86;74.12
68177;DHT22;56478;50.982;7.032;2024-03-02T06:40:49;7.97;73.76
68177;DHT22;56478;50.982;7.032;2024-03-02T06:43:15;7.98;73.47
68177;DHT22;56478;50.982;7.032;2024-03-02T06:45:41;8.07;73.33
68177;DHT22;56478;50.982;7.032;2024-03-02T06:48:07;8.01;73.32
68177;DHT22;56478;50.982;7.032;2024-03-02T06:50:32;8.11;73.15
68177;DHT22;56478;50.982;7.032;2024-03-02T06:52:58;8.08;73.46
68177;DHT22;56478;50.982;7.032;2024-03-02T06:55:24;8.10;73.43
68177;DHT22;56478;50.982;7.032;2024-03-02T06:57:50;8.14;73.16
68177;DHT22;56478;50.982;7.032;2024-03-02T07:00:16;8.22;73.11
68177;DHT22;56478;50.982;7.032;2024-03-02T07:02:44;8.21;73.13
68177;DHT22;56478;50.982;7.032;2024-03-02T07:05:10;8.31;72.79
68177;DHT22;56478;50.982;7.032;2024-03-02T07:07:37;8.27;72.76
68177;DHT22;56478;50.982;7.032;2024-03-02T07:10:04;8.39;72.54
68177;DHT22;56478;50.982;7.032;2024-03-02T07:12:30;8.41;72.51
68177;DHT22;56478;50.982;7.032;2024-03-02T07:14:57;8.39;72.63
68177;DHT22;56478;50.982;7.032;2024-03-02T07:17:29;8.76;71.59
68177;DHT22;56478;50.982;7.032;2024-03-02T07:19:54;9.31;69.96
68177;DHT22;56478;50.982;7.032;2024-03-02T07:22:20;9.54;68.89
68177;DHT22;56478;50.982;7.032;2024-03-02T07:24:46;9.91;68.12
68177;DHT22;56478;50.982;7.032;2024-03-02T07:27:12;10.14;67.10
68177;DHT22;56478;50.982;7.032;2024-03-02T07:29:39;10.76;65.57
68177;DHT22;56478;50.982;7.032;2024-03-02T07:32:06;11.46;63.50
68177;DHT22;56478;50.982;7.032;2024-03-02T07:34:32;11.23;63.42
68177;DHT22;56478;50.982;7.032;2024-03-02T07:36:58;11.49;62.98
68177;DHT22;56478;50.982;7.032;2024-03-02T07:39:24;11.47;62.92
68177;DHT22;56478;50.982;7.032;2024-03-02T07:41:49;11.63;62.37
68177;DHT22;56478;50.982;7.032;2024-03-02T07:44:15;12.29;60.87
68177;DHT22;56478;50.982;7.032;2024-03-02T07:46:42;12.49;60.15
68177;DHT22;56478;50.982;7.032;2024-03-02T07:49:08;12.94;59.48
68177;DHT22;56478;50.982;7.032;2024-03-02T07:51:34;13.75;56.85
68177;DHT22;56478;50.982;7.032;2024-03-02T07:54:00;13.68;56.75
68177;DHT22;56478;50.982;7.032;2024-03-02T07:56:26;13.67;55.40
68177;DHT22;56478;50.982;7.032;2024-03-02T07:58:52;12.71;58.32
68177;DHT22;56478;50.982;7.032;2024-03-02T08:01:18;12.58;59.42
68177;DHT22;56478;50.982;7.032;2024-03-02T08:03:44;13.42;57.15
68177;DHT22;56478;50.982;7.032;2024-03-02T08:06:18;13.23;57.69
68177;DHT22;56478;50.982;7.032;2024-03-02T08:08:47;13.72;56.02
68177;DHT22;56478;50.982;7.032;2024-03-02T08:11:12;13.37;56.39
68177;DHT22;56478;50.982;7.032;2024-03-02T08:13:38;12.96;57.85
68177;DHT22;56478;50.982;7.032;2024-03-02T08:16:04;13.24;56.68
68177;DHT22;56478;50.982;7.032;2024-03-02T08:18:33;14.26;55.52
68177;DHT22;56478;50.982;7.032;2024-03-02T08:20:58;16.17;50.85
68177;DHT22;56478;50.982;7.032;2024-03-02T08:23:24;17.58;47.71
68177;DHT22;56478;50.982;7.032;2024-03-02T08:25:50;18.14;45.70
68177;DHT22;56478;50.982;7.032;2024-03-02T08:28:16;18.63;44.69
68177;DHT22;56478;50.982;7.032;2024-03-02T08:30:42;19.41;42.93
68177;DHT22;56478;50.982;7.032;2024-03-02T08:33:08;20.44;41.21
68177;DHT22;56478;50.982;7.032;2024-03-02T08:35:34;20.09;41.21
68177;DHT22;56478;50.982;7.032;2024-03-02T08:38:02;20.84;39.19
68177;DHT22;56478;50.982;7.032;2024-03-02T08:40:29;20.41;40.47
68177;DHT22;56478;50.982;7.032;2024-03-02T08:42:54;20.45;41.06
68177;DHT22;56478;50.982;7.032;2024-03-02T08:45:20;21.53;39.07
68177;DHT22;56478;50.982;7.032;2024-03-02T08:47:46;21.31;39.00
68177;DHT22;56478;50.982;7.032;2024-03-02T08:50:12;21.21;38.50
68177;DHT22;56478;50.982;7.032;2024-03-02T08:52:38;21.20;38.47
68177;DHT22;56478;50.982;7.032;2024-03-02T08:55:04;20.07;40.66
68177;DHT22;56478;50.982;7.032;2024-03-02T08:57:31;19.08;43.16
68177;DHT22;56478;50.982;7.032;2024-03-02T08:59:57;20.37;40.59
68177;DHT22;56478;50.982;7.032;2024-03-02T09:02:23;19.51;41.85
68177;DHT22;56478;50.982;7.032;2024-03-02T09:04:49;20.04;41.50
68177;DHT22;56478;50.982;7.032;2024-03-02T09:07:14;20.56;40.08
68177;DHT22;56478;50.982;7.032;2024-03-02T09:09:40;20.82;39.84
68177;DHT22;56478;50.982;7.032;2024-03-02T09:12:07;21.75;38.28
68177;DHT22;56478;50.982;7.032;2024-03-02T09:14:33;23.07;36.12
68177;DHT22;56478;50.982;7.032;2024-03-02T09:16:59;22.73;36.27
68177;DHT22;56478;50.982;7.032;2024-03-02T09:19:24;21.18;38.88
68177;DHT22;56478;50.982;7.032;2024-03-02T09:21:50;22.24;36.74
68177;DHT22;56478;50.982;7.032;2024-03-02T09:24:16;22.51;36.66
68177;DHT22;56478;50.982;7.032;2024-03-02T09:26:41;22.82;36.25
68177;DHT22;56478;50.982;7.032;2024-03-02T09:29:07;23.00;35.39
68177;DHT22;56478;50.982;7.032;2024-03-02T09:31:33;22.25;36.37
68177;DHT22;56478;50.982;7.032;2024-03-02T09:34:04;22.15;37.06
68177;DHT22;56478;50.982;7.032;2024-03-02T09:36:29;21.97;36.42
68177;DHT22;56478;50.982;7.032;2024-03-02T09:38:55;21.96;36.58
68177;DHT22;56478;50.982;7.032;2024-03-02T09:41:21;21.10;38.33
68177;DHT22;56478;50.982;7.032;2024-03-02T09:43:46;21.24;38.50
68177;DHT22;56478;50.982;7.032;2024-03-02T09:46:12;21.53;38.69
68177;DHT22;56478;50.982;7.032;2024-03-02T09:48:38;21.41;38.18
68177;DHT22;56478;50.982;7.032;2024-03-02T09:51:04;20.48;39.79
68177;DHT22;56478;50.982;7.032;2024-03-02T09:53:32;20.32;39.76
68177;DHT22;56478;50.982;7.032;2024-03-02T09:55:59;20.61;39.90
68177;DHT22;56478;50.982;7.032;2024-03-02T09:58:25;20.77;39.04
68177;DHT22;56478;50.982;7.032;2024-03-02T10:00:51;20.35;39.12
68177;DHT22;56478;50.982;7.032;2024-03-02T10:03:18;20.48;39.18
68177;DHT22;56478;50.982;7.032;2024-03-02T10:05:44;20.48;39.31
68177;DHT22;56478;50.982;7.032;2024-03-02T10:08:10;21.35;38.89
68177;DHT22;56478;50.982;7.032;2024-03-02T10:10:36;21.56;37.54
68177;DHT22;56478;50.982;7.032;2024-03-02T10:13:09;21.53;37.71
68177;DHT22;56478;50.982;7.032;2024-03-02T10:15:37;21.21;37.68
68177;DHT22;56478;50.982;7.032;2024-03-02T10:18:08;20.68;39.10
68177;DHT22;56478;50.982;7.032;2024-03-02T10:20:35;20.17;39.95
68177;DHT22;56478;50.982;7.032;2024-03-02T10:23:14;20.84;39.38
68177;DHT22;56478;50.982;7.032;2024-03-02T10:25:41;21.37;37.82
68177;DHT22;56478;50.982;7.032;2024-03-02T10:28:07;21.35;37.87
68177;DHT22;56478;50.982;7.032;2024-03-02T10:30:34;22.46;35.92
68177;DHT22;56478;50.982;7.032;2024-03-02T10:33:03;22.42;36.33
68177;DHT22;56478;50.982;7.032;2024-03-02T10:35:29;23.49;33.63
68177;DHT22;56478;50.982;7.032;2024-03-02T10:38:04;23.15;34.62
68177;DHT22;56478;50.982;7.032;2024-03-02T10:40:29;23.10;34.86
68177;DHT22;56478;50.982;7.032;2024-03-02T10:42:55;23.12;34.93
68177;DHT22;56478;50.982;7.032;2024-03-02T10:45:23;23.19;34.30
68177;DHT22;56478;50.982;7.032;2024-03-02T10:47:49;23.42;33.86
68177;DHT22;56478;50.982;7.032;2024-03-02T10:50:15;22.97;34.40
68177;DHT22;56478;50.982;7.032;2024-03-02T10:52:41;22.12;36.13
68177;DHT22;56478;50.982;7.032;2024-03-02T10:55:09;22.27;36.38
68177;DHT22;56478;50.982;7.032;2024-03-02T10:57:43;19.54;39.59
68177;DHT22;56478;50.982;7.032;2024-03-02T11:00:12;19.72;39.40
68177;DHT22;56478;50.982;7.032;2024-03-02T11:02:51;19.15;41.20
68177;DHT22;56478;50.982;7.032;2024-03-02T11:05:31;19.45;40.96
68177;DHT22;56478;50.982;7.032;2024-03-02T11:08:00;18.90;41.37
68177;DHT22;56478;50.982;7.032;2024-03-02T11:10:58;19.03;41.07
68177;DHT22;56478;50.982;7.032;2024-03-02T11:13:32;18.43;42.58
68177;DHT22;56478;50.982;7.032;2024-03-02T11:16:12;18.23;43.59
68177;DHT22;56478;50.982;7.032;2024-03-02T11:18:43;18.82;42.60
68177;DHT22;56478;50.982;7.032;2024-03-02T11:21:09;18.96;41.37
68177;DHT22;56478;50.982;7.032;2024-03-02T11:23:35;18.58;42.58
68177;DHT22;56478;50.982;7.032;2024-03-02T11:26:20;18.30;44.10
68177;DHT22;56478;50.982;7.032;2024-03-02T11:28:46;18.02;44.22
68177;DHT22;56478;50.982;7.032;2024-03-02T11:31:12;17.93;44.25
68177;DHT22;56478;50.982;7.032;2024-03-02T11:33:38;17.79;44.63
68177;DHT22;56478;50.982;7.032;2024-03-02T11:36:06;17.44;45.57
68177;DHT22;56478;50.982;7.032;2024-03-02T11:38:33;17.48;46.03
68177;DHT22;56478;50.982;7.032;2024-03-02T11:41:08;17.44;45.25
68177;DHT22;56478;50.982;7.032;2024-03-02T11:43:38;17.40;45.28
68177;DHT22;56478;50.982;7.032;2024-03-02T11:46:05;17.12;46.09
68177;DHT22;56478;50.982;7.032;2024-03-02T11:48:39;16.95;46.54
68177;DHT22;56478;50.982;7.032;2024-03-02T11:51:05;17.20;46.13
68177;DHT22;56478;50.982;7.032;2024-03-02T11:53:30;17.32;46.10
68177;DHT22;56478;50.982;7.032;2024-03-02T11:56:01;16.92;46.70
68177;DHT22;56478;50.982;7.032;2024-03-02T11:58:27;17.42;46.83
68177;DHT22;56478;50.982;7.032;2024-03-02T12:00:54;17.45;46.65
68177;DHT22;56478;50.982;7.032;2024-03-02T12:03:24;17.19;47.08
68177;DHT22;56478;50.982;7.032;2024-03-02T12:05:52;17.28;47.35
68177;DHT22;56478;50.982;7.032;2024-03-02T12:08:18;17.05;47.54
68177;DHT22;56478;50.982;7.032;2024-03-02T12:10:56;16.89;47.97
68177;DHT22;56478;50.982;7.032;2024-03-02T12:13:21;16.67;48.45
68177;DHT22;56478;50.982;7.032;2024-03-02T12:15:48;16.52;48.89
68177;DHT22;56478;50.982;7.032;2024-03-02T12:18:18;16.47;48.46
68177;DHT22;56478;50.982;7.032;2024-03-02T12:20:44;16.09;49.38
68177;DHT22;56478;50.982;7.032;2024-03-02T12:23:09;16.30;49.55
68177;DHT22;56478;50.982;7.032;2024-03-02T12:25:35;16.41;49.40
68177;DHT22;56478;50.982;7.032;2024-03-02T12:28:01;16.09;49.79
68177;DHT22;56478;50.982;7.032;2024-03-02T12:30:30;16.08;49.62
68177;DHT22;56478;50.982;7.032;2024-03-02T12:32:56;16.17;49.87
68177;DHT22;56478;50.982;7.032;2024-03-02T12:35:22;15.85;51.25
68177;DHT22;56478;50.982;7.032;2024-03-02T12:37:51;15.91;50.36
68177;DHT22;56478;50.982;7.032;2024-03-02T12:40:17;15.81;50.82
68177;DHT22;56478;50.982;7.032;2024-03-02T12:42:45;15.50;51.35
68177;DHT22;56478;50.982;7.032;2024-03-02T12:45:11;15.54;51.62
68177;DHT22;56478;50.982;7.032;2024-03-02T12:47:37;15.55;51.68
68177;DHT22;56478;50.982;7.032;2024-03-02T12:50:04;15.37;52.07
68177;DHT22;56478;50.982;7.032;2024-03-02T12:52:31;15.31;52.00
68177;DHT22;56478;50.982;7.032;2024-03-02T12:54:59;15.34;52.35
68177;DHT22;56478;50.982;7.032;2024-03-02T12:57:26;15.22;52.26
68177;DHT22;56478;50.982;7.032;2024-03-02T12:59:57;15.34;51.83
68177;DHT22;56478;50.982;7.032;2024-03-02T13:02:23;15.44;51.87
68177;DHT22;56478;50.982;7.032;2024-03-02T13:04:53;15.51;51.61
68177;DHT22;56478;50.982;7.032;2024-03-02T13:07:20;15.64;51.59
68177;DHT22;56478;50.982;7.032;2024-03-02T13:09:49;15.59;51.71
68177;DHT22;56478;50.982;7.032;2024-03-02T13:12:15;15.64;51.55
68177;DHT22;56478;50.982;7.032;2024-03-02T13:14:42;15.57;51.45
68177;DHT22;56478;50.982;7.032;2024-03-02T13:17:10;15.39;52.27
68177;DHT22;56478;50.982;7.032;2024-03-02T13:19:36;15.50;51.66
68177;DHT22;56478;50.982;7.032;2024-03-02T13:22:01;15.79;51.80
68177;DHT22;56478;50.982;7.032;2024-03-02T13:24:29;15.91;51.26
68177;DHT22;56478;50.982;7.032;2024-03-02T13:26:55;15.95;51.38
68177;DHT22;56478;50.982;7.032;2024-03-02T13:29:23;15.77;51.24
68177;DHT22;56478;50.982;7.032;2024-03-02T13:31:49;15.62;51.51
68177;DHT22;56478;50.982;7.032;2024-03-02T13:34:15;15.72;51.42
68177;DHT22;56478;50.982;7.032;2024-03-02T13:36:41;15.72;52.06
68177;DHT22;56478;50.982;7.032;2024-03-02T13:39:06;15.72;51.24
68177;DHT22;56478;50.982;7.032;2024-03-02T13:41:34;15.77;51.26
68177;DHT22;56478;50.982;7.032;2024-03-02T13:44:00;15.65;51.70
68177;DHT22;56478;50.982;7.032;2024-03-02T13:46:27;15.61;51.69
68177;DHT22;56478;50.982;7.032;2024-03-02T13:48:53;15.65;51.27
68177;DHT22;56478;50.982;7.032;2024-03-02T13:51:19;15.48;51.97
68177;DHT22;56478;50.982;7.032;2024-03-02T13:53:45;15.54;51.85
68177;DHT22;56478;50.982;7.032;2024-03-02T13:56:11;15.46;52.55
68177;DHT22;56478;50.982;7.032;2024-03-02T13:58:37;15.53;52.33
68177;DHT22;56478;50.982;7.032;2024-03-02T14:01:04;15.34;52.44
68177;DHT22;56478;50.982;7.032;2024-03-02T14:03:30;15.59;52.18
68177;DHT22;56478;50.982;7.032;2024-03-02T14:05:56;15.62;52.58
68177;DHT22;56478;50.982;7.032;2024-03-02T14:08:22;15.78;51.85
68177;DHT22;56478;50.982;7.032;2024-03-02T14:10:48;15.64;52.05
68177;DHT22;56478;50.982;7.032;2024-03-02T14:13:14;15.69;51.41
68177;DHT22;56478;50.982;7.032;2024-03-02T14:15:41;15.62;52.19
68177;DHT22;56478;50.982;7.032;2024-03-02T14:18:07;15.64;51.62
68177;DHT22;56478;50.982;7.032;2024-03-02T14:20:35;15.65;51.85
68177;DHT22;56478;50.982;7.032;2024-03-02T14:23:01;15.81;51.77
68177;DHT22;56478;50.982;7.032;2024-03-02T14:25:28;15.61;51.74
68177;DHT22;56478;50.982;7.032;2024-03-02T14:27:57;15.57;52.41
68177;DHT22;56478;50.982;7.032;2024-03-02T14:30:23;15.41;51.73
68177;DHT22;56478;50.982;7.032;2024-03-02T14:32:49;15.33;51.87
68177;DHT22;56478;50.982;7.032;2024-03-02T14:35:15;15.30;51.72
68177;DHT22;56478;50.982;7.032;2024-03-02T14:37:41;15.41;51.77
68177;DHT22;56478;50.982;7.032;2024-03-02T14:40:07;15.48;51.55
68177;DHT22;56478;50.982;7.032;2024-03-02T14:42:35;15.43;51.35
68177;DHT22;56478;50.982;7.032;2024-03-02T14:45:01;15.31;51.31
68177;DHT22;56478;50.982;7.032;2024-03-02T14:47:31;15.29;51.63
68177;DHT22;56478;50.982;7.032;2024-03-02T14:49:57;15.23;51.80
68177;DHT22;56478;50.982;7.032;2024-03-02T14:52:23;15.20;51.90
68177;DHT22;56478;50.982;7.032;2024-03-02T14:54:49;15.14;52.36
68177;DHT22;56478;50.982;7.032;2024-03-02T14:57:14;15.14;52.04
68177;DHT22;56478;50.982;7.032;2024-03-02T14:59:40;15.05;52.06
68177;DHT22;56478;50.982;7.032;2024-03-02T15:02:07;14.98;52.54
68177;DHT22;56478;50.982;7.032;2024-03-02T15:04:33;14.99;52.42
68177;DHT22;56478;50.982;7.032;2024-03-02T15:06:59;15.03;52.34
68177;DHT22;56478;50.982;7.032;2024-03-02T15:09:24;14.92;52.18
68177;DHT22;56478;50.982;7.032;2024-03-02T15:11:50;14.89;52.30
68177;DHT22;56478;50.982;7.032;2024-03-02T15:14:16;14.82;53.00
68177;DHT22;56478;50.982;7.032;2024-03-02T15:16:42;14.95;52.39
68177;DHT22;56478;50.982;7.032;2024-03-02T15:19:08;14.92;52.06
68177;DHT22;56478;50.982;7.032;2024-03-02T15:21:33;14.86;52.29
68177;DHT22;56478;50.982;7.032;2024-03-02T15:23:59;14.88;52.68
68177;DHT22;56478;50.982;7.032;2024-03-02T15:26:25;14.89;52.46
68177;DHT22;56478;50.982;7.032;2024-03-02T15:28:51;14.84;52.59
68177;DHT22;56478;50.982;7.032;2024-03-02T15:31:21;14.93;52.13
68177;DHT22;56478;50.982;7.032;2024-03-02T15:33:47;15.05;52.12
68177;DHT22;56478;50.982;7.032;2024-03-02T15:36:12;14.92;52.16
68177;DHT22;56478;50.982;7.032;2024-03-02T15:38:38;14.95;51.75